createdAt,value
2019-02-16T00:01:47.666Z,28.17
2019-02-16T00:04:13.930Z,26.23
2019-02-16T00:06:40.132Z,28.17
2019-02-16T00:09:06.290Z,26.63
2019-02-16T00:11:32.448Z,29.50
2019-02-16T00:13:58.641Z,25.93
2019-02-16T00:16:24.887Z,28.27
2019-02-16T00:18:51.040Z,24.23
2019-02-16T00:21:17.341Z,28.33
2019-02-16T00:23:43.586Z,28.57
2019-02-16T00:26:09.748Z,25.60
2019-02-16T00:28:35.955Z,32.40
2019-02-16T00:31:02.238Z,29.50
2019-02-16T00:33:28.396Z,31.67
2019-02-16T00:35:54.595Z,30.63
2019-02-16T00:38:20.751Z,29.07
2019-02-16T00:40:46.899Z,33.07
2019-02-16T00:43:13.085Z,27.13
2019-02-16T00:45:39.231Z,25.73
2019-02-16T00:48:05.909Z,24.17
2019-02-16T00:50:32.205Z,25.23
2019-02-16T00:52:58.365Z,25.13
2019-02-16T00:55:24.519Z,28.23
2019-02-16T00:57:50.730Z,27.60
2019-02-16T01:00:16.881Z,25.73
2019-02-16T01:02:43.040Z,29.60
2019-02-16T01:05:09.236Z,26.47
2019-02-16T01:07:37.218Z,31.13
2019-02-16T01:10:06.177Z,27.80
2019-02-16T01:12:32.865Z,25.13
2019-02-16T01:14:59.033Z,25.40
2019-02-16T01:17:25.186Z,33.30
2019-02-16T01:19:51.378Z,24.33
2019-02-16T01:22:17.541Z,26.30
2019-02-16T01:24:43.709Z,27.63
2019-02-16T01:27:10.000Z,27.73
2019-02-16T01:29:36.260Z,23.10
2019-02-16T01:32:02.415Z,24.83
2019-02-16T01:34:28.620Z,28.87
2019-02-16T01:36:54.770Z,23.83
2019-02-16T01:39:20.926Z,29.97
2019-02-16T01:41:47.898Z,24.63
2019-02-16T01:44:14.276Z,24.00
2019-02-16T01:46:40.436Z,29.57
2019-02-16T01:49:06.683Z,25.43
2019-02-16T01:51:32.851Z,29.10
2019-02-16T01:53:59.008Z,22.43
2019-02-16T01:56:25.200Z,28.03
2019-02-16T01:58:51.379Z,32.37
2019-02-16T02:01:17.632Z,33.33
2019-02-16T02:03:43.840Z,26.07
2019-02-16T02:06:09.990Z,32.97
2019-02-16T02:08:36.235Z,24.60
2019-02-16T02:11:03.329Z,34.83
2019-02-16T02:13:29.533Z,27.13
2019-02-16T02:15:55.788Z,28.83
2019-02-16T02:18:22.096Z,29.53
2019-02-16T02:20:48.258Z,30.97
2019-02-16T02:23:14.416Z,33.53
2019-02-16T02:25:40.712Z,30.67
2019-02-16T02:28:06.869Z,25.33
2019-02-16T02:30:33.029Z,30.50
2019-02-16T02:32:59.223Z,36.17
2019-02-16T02:35:25.374Z,28.70
2019-02-16T02:37:51.629Z,30.63
2019-02-16T02:40:17.828Z,29.93
2019-02-16T02:42:43.979Z,32.07
2019-02-16T02:45:10.245Z,27.77
2019-02-16T02:47:36.423Z,30.87
2019-02-16T02:50:02.884Z,31.23
2019-02-16T02:52:29.038Z,30.07
2019-02-16T02:54:55.227Z,30.13
2019-02-16T02:57:21.381Z,28.33
2019-02-16T02:59:47.536Z,30.60
2019-02-16T03:02:13.728Z,32.57
2019-02-16T03:04:39.889Z,25.63
2019-02-16T03:07:06.043Z,31.77
2019-02-16T03:09:32.332Z,28.70
2019-02-16T03:11:58.497Z,29.67
2019-02-16T03:14:24.664Z,34.30
2019-02-16T03:16:50.858Z,27.73
2019-02-16T03:19:17.018Z,27.23
2019-02-16T03:21:43.168Z,63.73
2019-02-16T03:24:09.394Z,74.70
2019-02-16T03:26:42.215Z,104.53
2019-02-16T03:29:12.012Z,47.97
2019-02-16T03:31:53.754Z,288.60
2019-02-16T03:34:26.908Z,31.30
2019-02-16T03:37:14.236Z,26.80
2019-02-16T03:39:42.541Z,28.00
2019-02-16T03:42:08.721Z,46.50
2019-02-16T03:44:34.880Z,28.03
2019-02-16T03:47:01.070Z,25.13
2019-02-16T03:49:27.241Z,30.07
2019-02-16T03:51:53.504Z,39.27
2019-02-16T03:54:19.797Z,29.13
2019-02-16T03:56:46.421Z,29.03
2019-02-16T03:59:12.573Z,30.03
2019-02-16T04:01:38.787Z,25.13
2019-02-16T04:04:04.964Z,31.73
2019-02-16T04:06:31.135Z,25.63
2019-02-16T04:08:57.309Z,24.27
2019-02-16T04:11:23.565Z,26.70
2019-02-16T04:13:50.100Z,23.13
2019-02-16T04:16:16.297Z,27.67
2019-02-16T04:18:42.455Z,26.67
2019-02-16T04:21:08.619Z,27.20
2019-02-16T04:23:34.810Z,27.33
2019-02-16T04:26:02.882Z,26.13
2019-02-16T04:28:29.051Z,25.57
2019-02-16T04:30:55.237Z,26.53
2019-02-16T04:33:21.501Z,33.03
2019-02-16T04:35:47.664Z,26.77
2019-02-16T04:38:13.851Z,27.57
2019-02-16T04:40:40.013Z,27.40
2019-02-16T04:43:06.180Z,27.77
2019-02-16T04:45:32.478Z,23.63
2019-02-16T04:47:58.667Z,25.70
2019-02-16T04:50:24.926Z,26.43
2019-02-16T04:52:51.269Z,27.07
2019-02-16T04:55:17.532Z,25.80
2019-02-16T04:57:43.688Z,22.20
2019-02-16T05:00:09.878Z,21.90
2019-02-16T05:02:36.053Z,23.30
2019-02-16T05:05:02.376Z,23.90
2019-02-16T05:07:28.577Z,24.10
2019-02-16T05:09:54.869Z,24.77
2019-02-16T05:12:21.298Z,20.90
2019-02-16T05:14:47.474Z,26.00
2019-02-16T05:17:13.744Z,26.47
2019-02-16T05:19:40.106Z,26.47
2019-02-16T05:22:06.358Z,27.10
2019-02-16T05:24:32.683Z,30.90
2019-02-16T05:26:58.834Z,25.00
2019-02-16T05:29:25.064Z,25.87
2019-02-16T05:31:51.347Z,22.97
2019-02-16T05:34:17.507Z,29.23
2019-02-16T05:36:43.696Z,27.73
2019-02-16T05:39:09.860Z,26.37
2019-02-16T05:41:36.115Z,27.53
2019-02-16T05:44:02.409Z,43.10
2019-02-16T05:46:28.566Z,56.67
2019-02-16T05:48:54.735Z,47.87
2019-02-16T05:51:21.068Z,30.70
2019-02-16T05:53:48.314Z,34.73
2019-02-16T05:56:14.578Z,28.77
2019-02-16T05:58:40.789Z,25.43
2019-02-16T06:01:06.953Z,27.07
2019-02-16T06:03:33.219Z,25.60
2019-02-16T06:05:59.404Z,30.13
2019-02-16T06:08:25.581Z,27.90
2019-02-16T06:10:51.822Z,28.73
2019-02-16T06:13:18.038Z,25.37
2019-02-16T06:15:44.308Z,25.40
2019-02-16T06:18:10.471Z,28.50
2019-02-16T06:20:36.663Z,23.07
2019-02-16T06:23:04.582Z,22.43
2019-02-16T06:25:31.020Z,24.97
2019-02-16T06:27:57.224Z,31.47
2019-02-16T06:30:25.338Z,31.63
2019-02-16T06:32:51.496Z,25.00
2019-02-16T06:35:36.013Z,24.17
2019-02-16T06:38:02.277Z,38.67
2019-02-16T06:40:28.542Z,35.40
2019-02-16T06:42:54.750Z,36.67
2019-02-16T06:45:20.914Z,34.90
2019-02-16T06:47:47.186Z,29.73
2019-02-16T06:50:13.491Z,31.87
2019-02-16T06:52:39.661Z,38.77
2019-02-16T06:55:05.879Z,25.60
2019-02-16T06:57:32.182Z,25.83
2019-02-16T06:59:58.353Z,27.57
2019-02-16T07:02:25.910Z,37.43
2019-02-16T07:04:52.105Z,25.23
2019-02-16T07:07:18.375Z,20.43
2019-02-16T07:09:44.631Z,24.73
2019-02-16T07:12:10.925Z,28.17
2019-02-16T07:14:37.397Z,25.17
2019-02-16T07:17:23.395Z,28.60
2019-02-16T07:19:51.076Z,22.93
2019-02-16T07:22:17.239Z,24.93
2019-02-16T07:24:43.433Z,19.03
2019-02-16T07:27:09.607Z,20.03
2019-02-16T07:29:35.775Z,23.60
2019-02-16T07:32:02.063Z,23.20
2019-02-16T07:34:28.239Z,20.17
2019-02-16T07:36:54.513Z,24.13
2019-02-16T07:39:20.714Z,19.73
2019-02-16T07:41:46.873Z,23.00
2019-02-16T07:44:32.886Z,21.07
2019-02-16T07:47:00.899Z,25.43
2019-02-16T07:49:28.978Z,27.73
2019-02-16T07:51:59.909Z,38.13
2019-02-16T07:54:44.645Z,38.40
2019-02-16T07:57:30.663Z,28.20
2019-02-16T07:59:58.732Z,22.83
2019-02-16T08:02:26.859Z,24.57
2019-02-16T08:04:55.135Z,24.37
2019-02-16T08:07:32.154Z,21.80
2019-02-16T08:10:06.057Z,20.90
2019-02-16T08:12:36.911Z,20.57
2019-02-16T08:15:09.198Z,18.87
2019-02-16T08:17:40.106Z,28.07
2019-02-16T08:20:08.188Z,17.77
2019-02-16T08:22:36.280Z,22.13
2019-02-16T08:25:21.818Z,17.83
2019-02-16T08:27:55.643Z,18.40
2019-02-16T08:30:26.502Z,20.97
2019-02-16T08:33:00.399Z,22.63
2019-02-16T08:35:44.909Z,21.17
2019-02-16T08:38:27.945Z,23.17
2019-02-16T08:41:07.786Z,28.03
2019-02-16T08:43:38.651Z,19.33
2019-02-16T08:46:12.760Z,28.60
2019-02-16T08:48:43.547Z,20.63
2019-02-16T08:51:20.298Z,17.10
2019-02-16T08:53:50.016Z,21.67
2019-02-16T08:56:18.345Z,18.97
2019-02-16T08:58:49.014Z,16.13
2019-02-16T09:01:17.122Z,15.90
2019-02-16T09:03:45.182Z,21.13
2019-02-16T09:06:15.813Z,16.60
2019-02-16T09:08:49.637Z,15.90
2019-02-16T09:11:34.392Z,18.20
2019-02-16T09:14:18.744Z,19.10
2019-02-16T09:16:46.799Z,19.33
2019-02-16T09:19:26.877Z,21.73
2019-02-16T09:21:57.729Z,17.93
2019-02-16T09:24:28.637Z,26.97
2019-02-16T09:27:05.444Z,15.73
2019-02-16T09:29:39.460Z,13.43
2019-02-16T09:32:10.191Z,15.23
2019-02-16T09:34:56.444Z,18.30
2019-02-16T09:37:30.315Z,18.10
2019-02-16T09:40:04.299Z,19.83
2019-02-16T09:42:49.033Z,23.30
2019-02-16T09:45:33.690Z,12.93
2019-02-16T09:48:18.530Z,20.10
2019-02-16T09:50:46.642Z,19.47
2019-02-16T09:53:23.729Z,15.40
2019-02-16T09:55:57.490Z,14.40
2019-02-16T09:58:25.550Z,20.10
2019-02-16T10:00:59.554Z,16.47
2019-02-16T10:03:30.179Z,18.50
2019-02-16T10:06:01.167Z,15.33
2019-02-16T10:08:35.060Z,14.77
2019-02-16T10:11:19.671Z,14.97
2019-02-16T10:13:47.782Z,23.23
2019-02-16T10:16:34.404Z,17.60
2019-02-16T10:19:14.210Z,20.93
2019-02-16T10:21:45.099Z,16.73
2019-02-16T10:24:18.939Z,14.57
2019-02-16T10:26:49.515Z,12.60
2019-02-16T10:29:17.615Z,14.97
2019-02-16T10:31:45.715Z,18.03
2019-02-16T10:34:30.130Z,13.17
2019-02-16T10:37:00.884Z,16.93
2019-02-16T10:39:34.772Z,13.13
2019-02-16T10:42:02.868Z,12.10
2019-02-16T10:44:33.605Z,17.33
2019-02-16T10:47:07.571Z,17.70
2019-02-16T10:49:35.627Z,19.93
2019-02-16T10:52:20.462Z,23.47
2019-02-16T10:54:48.535Z,20.97
2019-02-16T10:57:23.722Z,22.07
2019-02-16T11:00:08.421Z,13.30
2019-02-16T11:02:52.841Z,12.50
2019-02-16T11:05:37.378Z,23.37
2019-02-16T11:08:07.947Z,20.37
2019-02-16T11:10:36.009Z,18.77
2019-02-16T11:13:16.467Z,16.37
2019-02-16T11:16:01.135Z,17.93
2019-02-16T11:18:44.089Z,29.77
2019-02-16T11:21:12.487Z,12.60
2019-02-16T11:23:45.367Z,23.13
2019-02-16T11:26:19.031Z,13.47
2019-02-16T11:28:56.397Z,14.30
2019-02-16T11:31:36.387Z,23.10
2019-02-16T11:34:22.669Z,17.43
2019-02-16T11:37:05.620Z,15.77
2019-02-16T11:39:36.397Z,18.73
2019-02-16T11:42:04.460Z,16.90
2019-02-16T11:44:35.117Z,17.20
2019-02-16T11:47:05.799Z,13.40
2019-02-16T11:49:33.869Z,12.30
2019-02-16T11:52:16.987Z,14.20
2019-02-16T11:54:47.583Z,13.50
2019-02-16T11:57:24.335Z,16.50
2019-02-16T12:00:08.675Z,18.50
2019-02-16T12:02:45.600Z,21.23
2019-02-16T12:05:30.326Z,14.93
2019-02-16T12:08:00.927Z,12.53
2019-02-16T12:10:31.653Z,11.53
2019-02-16T12:13:05.341Z,18.00
2019-02-16T12:15:42.122Z,13.73
2019-02-16T12:18:28.011Z,12.90
2019-02-16T12:21:01.637Z,12.80
2019-02-16T12:23:46.575Z,18.77
2019-02-16T12:26:26.355Z,22.00
2019-02-16T12:29:03.239Z,26.63
2019-02-16T12:31:43.564Z,20.63
2019-02-16T12:34:14.230Z,16.70
2019-02-16T12:36:42.303Z,58.37
2019-02-16T12:39:25.227Z,24.57
2019-02-16T12:41:55.806Z,12.27
2019-02-16T12:44:29.511Z,19.83
2019-02-16T12:47:03.184Z,15.43
2019-02-16T12:49:31.247Z,13.43
2019-02-16T12:52:01.927Z,14.07
2019-02-16T12:54:45.065Z,11.03
2019-02-16T12:57:13.159Z,14.50
2019-02-16T12:59:44.218Z,26.33
2019-02-16T13:02:17.864Z,34.83
2019-02-16T13:04:48.447Z,16.67
2019-02-16T13:07:16.575Z,24.50
2019-02-16T13:09:50.199Z,12.73
2019-02-16T13:12:20.761Z,13.53
2019-02-16T13:14:54.468Z,12.30
2019-02-16T13:17:22.753Z,18.47
2019-02-16T13:19:50.836Z,15.67
2019-02-16T13:22:24.891Z,16.47
2019-02-16T13:24:52.952Z,20.77
2019-02-16T13:27:30.326Z,19.87
2019-02-16T13:29:58.432Z,8.80
2019-02-16T13:32:26.501Z,13.47
2019-02-16T13:34:57.670Z,11.90
2019-02-16T13:37:25.745Z,28.07
2019-02-16T13:40:02.688Z,13.33
2019-02-16T13:42:33.285Z,14.83
2019-02-16T13:45:01.348Z,20.83
2019-02-16T13:47:38.405Z,18.00
2019-02-16T13:50:09.484Z,17.53
2019-02-16T13:52:54.140Z,15.37
2019-02-16T13:55:38.634Z,15.87
2019-02-16T13:58:18.485Z,15.37
2019-02-16T14:00:46.550Z,16.53
2019-02-16T14:03:20.548Z,13.90
2019-02-16T14:05:48.604Z,17.20
2019-02-16T14:08:23.376Z,18.30
2019-02-16T14:10:51.455Z,29.47
2019-02-16T14:13:37.406Z,23.70
2019-02-16T14:16:11.036Z,21.70
2019-02-16T14:18:37.186Z,16.67
2019-02-16T14:21:03.440Z,27.83
2019-02-16T14:23:29.750Z,14.03
2019-02-16T14:25:55.997Z,11.87
2019-02-16T14:28:22.265Z,14.50
2019-02-16T14:30:48.731Z,13.83
2019-02-16T14:33:14.896Z,19.43
2019-02-16T14:35:42.086Z,15.90
2019-02-16T14:38:10.163Z,13.50
2019-02-16T14:40:36.335Z,10.43
2019-02-16T14:43:02.570Z,13.07
2019-02-16T14:45:30.441Z,16.90
2019-02-16T14:47:56.624Z,15.57
2019-02-16T14:50:25.350Z,12.60
2019-02-16T14:52:51.514Z,10.87
2019-02-16T14:55:20.352Z,10.83
2019-02-16T14:57:46.600Z,23.53
2019-02-16T15:00:12.835Z,13.13
2019-02-16T15:02:39.003Z,17.20
2019-02-16T15:05:07.137Z,16.30
2019-02-16T15:07:33.313Z,21.70
2019-02-16T15:09:59.504Z,24.63
2019-02-16T15:12:26.046Z,28.93
2019-02-16T15:14:52.200Z,35.07
2019-02-16T15:17:18.404Z,31.07
2019-02-16T15:19:44.604Z,32.30
2019-02-16T15:22:10.865Z,71.90
2019-02-16T15:24:37.034Z,37.43
2019-02-16T15:27:03.341Z,30.00
2019-02-16T15:29:29.512Z,24.67
2019-02-16T15:31:55.672Z,30.37
2019-02-16T15:34:21.974Z,48.60
2019-02-16T15:36:48.131Z,120.60
2019-02-16T15:39:14.287Z,70.33
2019-02-16T15:41:40.496Z,33.63
2019-02-16T15:44:06.754Z,28.13
2019-02-16T15:46:32.920Z,33.13
2019-02-16T15:49:01.873Z,37.97
2019-02-16T15:51:28.033Z,28.90
2019-02-16T15:53:54.183Z,42.57
2019-02-16T15:56:21.678Z,71.63
2019-02-16T15:58:48.313Z,69.97
2019-02-16T16:01:14.510Z,69.80
2019-02-16T16:03:41.186Z,84.93
2019-02-16T16:06:07.450Z,63.20
2019-02-16T16:08:44.607Z,37.77
2019-02-16T16:11:15.221Z,43.40
2019-02-16T16:13:54.995Z,43.03
2019-02-16T16:16:39.656Z,41.33
2019-02-16T16:19:11.303Z,32.10
2019-02-16T16:21:41.881Z,36.13
2019-02-16T16:24:12.511Z,36.73
2019-02-16T16:26:52.417Z,38.30
2019-02-16T16:29:23.112Z,39.47
2019-02-16T16:31:53.715Z,35.07
2019-02-16T16:34:38.132Z,43.73
2019-02-16T16:37:06.175Z,28.10
2019-02-16T16:39:34.237Z,33.00
2019-02-16T16:42:02.410Z,33.30
2019-02-16T16:44:36.334Z,37.63
2019-02-16T16:47:04.438Z,30.97
2019-02-16T16:49:38.109Z,55.53
2019-02-16T16:52:06.158Z,44.20
2019-02-16T16:54:34.760Z,48.20
2019-02-16T16:57:19.320Z,97.27
2019-02-16T16:59:50.726Z,122.83
2019-02-16T17:02:21.560Z,63.23
2019-02-16T17:05:01.407Z,51.80
2019-02-16T17:07:32.010Z,65.70
2019-02-16T17:10:18.135Z,62.50
2019-02-16T17:12:51.997Z,68.80
2019-02-16T17:15:22.854Z,69.17
2019-02-16T17:17:56.447Z,98.43
2019-02-16T17:20:33.353Z,113.27
2019-02-16T17:23:16.510Z,100.07
2019-02-16T17:25:44.552Z,161.73
2019-02-16T17:28:15.166Z,140.10
2019-02-16T17:30:46.005Z,138.13
2019-02-16T17:33:19.669Z,139.17
2019-02-16T17:35:52.552Z,87.30
2019-02-16T17:38:32.306Z,78.57
2019-02-16T17:41:02.910Z,78.33
2019-02-16T17:43:31.070Z,80.30
2019-02-16T17:45:59.169Z,59.60
2019-02-16T17:48:36.313Z,43.63
2019-02-16T17:51:10.353Z,31.50
2019-02-16T17:53:38.479Z,38.17
2019-02-16T17:56:09.328Z,66.23
2019-02-16T17:58:37.429Z,43.90
2019-02-16T18:01:14.389Z,42.80
2019-02-16T18:03:58.781Z,34.40
2019-02-16T18:06:26.842Z,41.43
2019-02-16T18:08:57.418Z,32.20
2019-02-16T18:11:34.169Z,27.57
2019-02-16T18:14:04.897Z,32.77
2019-02-16T18:16:38.750Z,28.77
2019-02-16T18:19:09.330Z,48.57
2019-02-16T18:21:43.274Z,31.30
2019-02-16T18:24:14.202Z,55.73
2019-02-16T18:26:56.056Z,30.47
2019-02-16T18:29:18.280Z,38.93
2019-02-16T18:31:48.888Z,22.50
2019-02-16T18:34:32.315Z,24.07
2019-02-16T18:37:09.222Z,50.93
2019-02-16T18:39:37.477Z,24.17
2019-02-16T18:42:05.578Z,27.27
2019-02-16T18:44:39.733Z,38.87
2019-02-16T18:47:07.787Z,19.30
2019-02-16T18:49:38.604Z,16.83
2019-02-16T18:52:06.694Z,19.43
2019-02-16T18:54:43.854Z,13.60
2019-02-16T18:57:14.677Z,14.13
2019-02-16T18:59:51.528Z,15.20
2019-02-16T19:02:25.249Z,13.80
2019-02-16T19:05:05.019Z,16.50
2019-02-16T19:07:38.763Z,17.50
2019-02-16T19:10:22.666Z,13.93
2019-02-16T19:12:50.761Z,18.37
2019-02-16T19:15:21.379Z,17.77
2019-02-16T19:17:49.447Z,16.93
2019-02-16T19:20:17.928Z,20.43
2019-02-16T19:22:51.851Z,23.33
2019-02-16T19:25:19.963Z,17.37
2019-02-16T19:27:48.126Z,17.53
2019-02-16T19:30:16.193Z,15.60
2019-02-16T19:32:50.096Z,12.93
2019-02-16T19:35:36.238Z,10.83
2019-02-16T19:38:04.344Z,12.30
2019-02-16T19:40:32.409Z,12.18
2019-02-16T19:43:06.483Z,16.27
2019-02-16T19:45:34.543Z,14.47
2019-02-16T19:48:02.608Z,15.87
2019-02-16T19:50:30.704Z,12.47
2019-02-16T19:53:04.377Z,14.40
2019-02-16T19:55:35.806Z,11.73
2019-02-16T19:58:12.909Z,15.50
2019-02-16T20:00:41.009Z,13.93
2019-02-16T20:03:20.693Z,13.47
2019-02-16T20:05:56.046Z,15.07
2019-02-16T20:08:24.301Z,14.47
2019-02-16T20:10:57.169Z,14.77
2019-02-16T20:13:42.100Z,12.57
2019-02-16T20:16:16.308Z,13.63
2019-02-16T20:18:47.016Z,16.20
2019-02-16T20:21:30.141Z,18.87
2019-02-16T20:24:09.868Z,12.53
2019-02-16T20:26:50.009Z,15.97
2019-02-16T20:29:20.580Z,14.27
2019-02-16T20:31:48.641Z,16.23
2019-02-16T20:34:25.794Z,17.47
2019-02-16T20:36:56.633Z,20.63
2019-02-16T20:39:30.519Z,16.23
2019-02-16T20:41:58.573Z,20.80
2019-02-16T20:44:26.635Z,22.57
2019-02-16T20:47:00.603Z,19.50
2019-02-16T20:49:37.519Z,30.60
2019-02-16T20:52:08.153Z,20.43
2019-02-16T20:54:45.239Z,19.27
2019-02-16T21:00:01.884Z,64.60
2019-02-16T21:02:35.881Z,20.77
2019-02-16T21:05:07.503Z,18.80
2019-02-16T21:07:41.212Z,23.53
2019-02-16T21:10:09.282Z,20.37
2019-02-16T21:12:40.076Z,16.47
2019-02-16T21:15:24.896Z,14.93
2019-02-16T21:17:58.633Z,16.13
2019-02-16T21:20:29.417Z,14.70
2019-02-16T21:23:00.528Z,17.13
2019-02-16T21:25:34.675Z,15.83
2019-02-16T21:28:17.503Z,14.27
2019-02-16T21:30:45.604Z,17.50
2019-02-16T21:33:16.484Z,39.83
2019-02-16T21:35:50.483Z,68.83
2019-02-16T21:38:21.064Z,60.73
2019-02-16T21:40:51.890Z,63.03
2019-02-16T21:43:22.915Z,58.47
2019-02-16T21:46:08.868Z,64.93
2019-02-16T21:48:51.741Z,61.53
2019-02-16T21:51:32.085Z,72.73
2019-02-16T21:54:02.900Z,103.20
2019-02-16T21:56:30.978Z,94.03
2019-02-16T21:59:18.965Z,63.07
2019-02-16T22:01:44.093Z,71.43
2019-02-16T22:04:16.245Z,77.07
2019-02-16T22:06:56.564Z,62.83
2019-02-16T22:09:30.309Z,70.43
2019-02-16T22:12:04.089Z,45.83
2019-02-16T22:14:30.254Z,66.00
2019-02-16T22:16:56.439Z,53.03
2019-02-16T22:19:22.744Z,50.73
2019-02-16T22:21:50.421Z,45.77
2019-02-16T22:24:16.638Z,43.77
2019-02-16T22:26:42.889Z,37.07
2019-02-16T22:29:09.072Z,36.47
2019-02-16T22:31:35.381Z,33.30
2019-02-16T22:34:01.532Z,23.97
2019-02-16T22:36:27.675Z,38.07
2019-02-16T22:38:53.865Z,43.40
2019-02-16T22:41:20.027Z,39.73
2019-02-16T22:43:46.187Z,43.43
2019-02-16T22:46:12.373Z,48.57
2019-02-16T22:48:38.576Z,51.27
2019-02-16T22:51:04.728Z,67.43
2019-02-16T22:53:30.916Z,79.57
2019-02-16T22:55:57.069Z,93.03
2019-02-16T22:58:28.731Z,81.70
2019-02-16T23:00:52.223Z,64.87
2019-02-16T23:03:18.481Z,83.63
2019-02-16T23:05:44.637Z,94.13
2019-02-16T23:08:11.142Z,74.30
2019-02-16T23:10:37.301Z,70.37
2019-02-16T23:13:04.266Z,78.87
2019-02-16T23:15:30.448Z,79.07
2019-02-16T23:17:56.603Z,78.47
2019-02-16T23:20:22.768Z,74.60
2019-02-16T23:22:48.993Z,79.93
2019-02-16T23:25:15.149Z,68.53
2019-02-16T23:27:41.303Z,72.17
2019-02-16T23:30:09.586Z,68.60
2019-02-16T23:32:35.754Z,77.07
2019-02-16T23:35:02.110Z,66.27
2019-02-16T23:37:28.304Z,73.80
2019-02-16T23:39:54.463Z,90.80
2019-02-16T23:42:20.621Z,289.47
2019-02-16T23:44:46.926Z,61.43
2019-02-16T23:47:13.085Z,62.23
2019-02-16T23:49:39.236Z,59.67
2019-02-16T23:52:05.425Z,63.60
2019-02-16T23:54:31.572Z,57.67
2019-02-16T23:56:57.739Z,50.33
2019-02-16T23:59:23.931Z,47.20
